createdAt,value
2019-06-20T00:01:39.530Z,98041.87
2019-06-20T00:04:08.254Z,98041.97
2019-06-20T00:06:36.983Z,98040.61
2019-06-20T00:09:07.112Z,98038.70
2019-06-20T00:11:35.889Z,98029.96
2019-06-20T00:14:04.924Z,98034.25
2019-06-20T00:16:33.644Z,98034.28
2019-06-20T00:19:02.395Z,98023.55
2019-06-20T00:21:31.157Z,98021.16
2019-06-20T00:23:59.932Z,98013.30
2019-06-20T00:26:28.682Z,98014.69
2019-06-20T00:28:57.411Z,98008.94
2019-06-20T00:31:26.185Z,98011.58
2019-06-20T00:33:54.906Z,98002.52
2019-06-20T00:36:23.686Z,98001.98
2019-06-20T00:38:52.391Z,98000.58
2019-06-20T00:41:21.107Z,98003.52
2019-06-20T00:43:49.814Z,98001.69
2019-06-20T00:46:18.544Z,97993.80
2019-06-20T00:48:47.293Z,97990.50
2019-06-20T00:51:15.998Z,97994.84
2019-06-20T00:53:44.709Z,97989.03
2019-06-20T00:56:13.435Z,97994.55
2019-06-20T00:58:42.144Z,97996.45
2019-06-20T01:01:10.960Z,97993.62
2019-06-20T01:03:39.673Z,97994.16
2019-06-20T01:06:08.382Z,97989.23
2019-06-20T01:08:37.094Z,97989.33
2019-06-20T01:11:05.860Z,97991.42
2019-06-20T01:13:34.663Z,97987.76
2019-06-20T01:16:03.369Z,97991.91
2019-06-20T01:18:32.127Z,97985.52
2019-06-20T01:21:01.351Z,97987.20
2019-06-20T01:23:30.055Z,97992.97
2019-06-20T01:25:58.805Z,97975.92
2019-06-20T01:28:27.509Z,97971.20
2019-06-20T01:30:56.223Z,97972.95
2019-06-20T01:33:24.968Z,97969.09
2019-06-20T01:35:53.678Z,97976.22
2019-06-20T01:38:22.486Z,97979.63
2019-06-20T01:40:51.207Z,97989.80
2019-06-20T01:43:19.921Z,97998.54
2019-06-20T01:45:48.696Z,97994.41
2019-06-20T01:48:17.407Z,97994.70
2019-06-20T01:50:46.118Z,97998.97
2019-06-20T01:53:14.844Z,97993.21
2019-06-20T01:55:43.553Z,97991.41
2019-06-20T01:58:12.317Z,97990.00
2019-06-20T02:00:51.099Z,97990.53
2019-06-20T02:03:21.025Z,97993.25
2019-06-20T02:05:49.770Z,97999.50
2019-06-20T02:08:18.483Z,97998.05
2019-06-20T02:10:47.196Z,97999.16
2019-06-20T02:13:16.394Z,98001.12
2019-06-20T02:15:45.105Z,98003.98
2019-06-20T02:18:13.921Z,98006.88
2019-06-20T02:20:51.756Z,98011.52
2019-06-20T02:23:20.861Z,98017.18
2019-06-20T02:25:49.661Z,98012.48
2019-06-20T02:28:18.337Z,98019.17
2019-06-20T02:30:47.146Z,98019.95
2019-06-20T02:33:16.222Z,98022.77
2019-06-20T02:35:44.929Z,98019.77
2019-06-20T02:38:13.674Z,98022.03
2019-06-20T02:40:42.368Z,98013.22
2019-06-20T02:43:11.072Z,98020.55
2019-06-20T02:45:39.834Z,98016.61
2019-06-20T02:48:08.545Z,98016.29
2019-06-20T02:50:37.752Z,98022.42
2019-06-20T02:53:06.482Z,98020.60
2019-06-20T02:55:35.194Z,98018.89
2019-06-20T02:58:03.899Z,98014.61
2019-06-20T03:01:00.678Z,98017.57
2019-06-20T03:03:29.977Z,98010.81
2019-06-20T03:05:58.934Z,98015.73
2019-06-20T03:08:27.939Z,98011.50
2019-06-20T03:10:56.657Z,98022.39
2019-06-20T03:13:25.369Z,98021.88
2019-06-20T03:15:54.180Z,98024.39
2019-06-20T03:18:22.929Z,98019.47
2019-06-20T03:20:51.633Z,98025.11
2019-06-20T03:23:20.342Z,98022.08
2019-06-20T03:25:49.089Z,98019.08
2019-06-20T03:28:17.791Z,98027.09
2019-06-20T03:30:46.502Z,98025.58
2019-06-20T03:33:15.315Z,98025.87
2019-06-20T03:35:44.028Z,98022.16
2019-06-20T03:38:12.812Z,98016.35
2019-06-20T03:40:41.568Z,98020.55
2019-06-20T03:43:10.308Z,98022.06
2019-06-20T03:45:39.017Z,98024.19
2019-06-20T03:48:07.729Z,98027.58
2019-06-20T03:50:36.631Z,98021.80
2019-06-20T03:53:05.338Z,98023.04
2019-06-20T03:55:34.244Z,98024.25
2019-06-20T03:58:03.112Z,98028.83
2019-06-20T04:00:34.413Z,98022.95
2019-06-20T04:03:03.820Z,98024.45
2019-06-20T04:05:32.522Z,98019.63
2019-06-20T04:08:01.332Z,98021.69
2019-06-20T04:10:30.105Z,98029.77
2019-06-20T04:12:58.843Z,98031.88
2019-06-20T04:15:27.610Z,98029.72
2019-06-20T04:17:56.308Z,98036.30
2019-06-20T04:20:25.029Z,98038.72
2019-06-20T04:22:53.777Z,98039.08
2019-06-20T04:25:22.485Z,98042.45
2019-06-20T04:27:51.264Z,98044.92
2019-06-20T04:30:20.020Z,98043.69
2019-06-20T04:32:48.768Z,98045.00
2019-06-20T04:35:17.490Z,98044.50
2019-06-20T04:37:46.207Z,98050.80
2019-06-20T04:40:16.873Z,98053.99
2019-06-20T04:42:45.582Z,98058.17
2019-06-20T04:45:16.571Z,98049.66
2019-06-20T04:47:45.289Z,98058.16
2019-06-20T04:50:14.113Z,98059.40
2019-06-20T04:52:42.863Z,98061.22
2019-06-20T04:55:11.574Z,98051.97
2019-06-20T04:57:40.345Z,98056.79
2019-06-20T05:00:09.633Z,98055.13
2019-06-20T05:02:38.311Z,98055.42
2019-06-20T05:05:09.185Z,98057.06
2019-06-20T05:07:37.896Z,98055.92
2019-06-20T05:10:07.299Z,98049.69
2019-06-20T05:12:36.036Z,98046.00
2019-06-20T05:15:06.348Z,98046.95
2019-06-20T05:17:35.115Z,98048.31
2019-06-20T05:20:04.925Z,98056.05
2019-06-20T05:22:33.634Z,98055.67
2019-06-20T05:25:02.346Z,98051.73
2019-06-20T05:27:31.061Z,98056.95
2019-06-20T05:29:59.801Z,98053.38
2019-06-20T05:32:28.509Z,98057.80
2019-06-20T05:34:57.230Z,98055.80
2019-06-20T05:37:25.955Z,98056.51
2019-06-20T05:39:54.675Z,98051.56
2019-06-20T05:42:24.265Z,98051.70
2019-06-20T05:44:52.979Z,98050.98
2019-06-20T05:47:21.689Z,98051.38
2019-06-20T05:49:50.467Z,98045.72
2019-06-20T05:52:19.201Z,98049.35
2019-06-20T05:54:47.943Z,98053.20
2019-06-20T05:57:16.693Z,98049.38
2019-06-20T05:59:45.386Z,98053.83
2019-06-20T06:02:14.125Z,98052.33
2019-06-20T06:04:42.960Z,98052.39
2019-06-20T06:07:14.272Z,98048.13
2019-06-20T06:09:42.457Z,98043.84
2019-06-20T06:12:11.261Z,98042.84
2019-06-20T06:14:40.013Z,98043.98
2019-06-20T06:17:08.799Z,98036.77
2019-06-20T06:19:37.513Z,98042.48
2019-06-20T06:22:06.235Z,98036.48
2019-06-20T06:24:34.952Z,98033.06
2019-06-20T06:27:03.711Z,98021.97
2019-06-20T06:29:33.990Z,98024.80
2019-06-20T06:32:02.700Z,98023.27
2019-06-20T06:34:31.421Z,98023.62
2019-06-20T06:37:00.133Z,98021.09
2019-06-20T06:39:28.872Z,98028.28
2019-06-20T06:41:57.613Z,98029.36
2019-06-20T06:44:26.302Z,98025.24
2019-06-20T06:46:59.458Z,98016.75
2019-06-20T06:49:25.461Z,98017.41
2019-06-20T06:51:54.229Z,98013.41
2019-06-20T06:54:22.941Z,98022.02
2019-06-20T06:56:51.653Z,98021.88
2019-06-20T06:59:20.369Z,98022.79
2019-06-20T07:01:49.077Z,98026.97
2019-06-20T07:04:17.832Z,98022.58
2019-06-20T07:06:46.549Z,98021.43
2019-06-20T07:09:15.256Z,98022.37
2019-06-20T07:11:44.086Z,98021.89
2019-06-20T07:14:12.791Z,98016.75
2019-06-20T07:16:41.502Z,98009.30
2019-06-20T07:19:10.219Z,98005.77
2019-06-20T07:21:38.937Z,98012.91
2019-06-20T07:24:07.686Z,98007.67
2019-06-20T07:26:36.408Z,98007.39
2019-06-20T07:29:05.750Z,98005.38
2019-06-20T07:31:34.444Z,98005.84
2019-06-20T07:34:03.169Z,98009.78
2019-06-20T07:36:31.986Z,98012.24
2019-06-20T07:39:00.713Z,98008.92
2019-06-20T07:41:29.418Z,98012.48
2019-06-20T07:43:58.135Z,98008.06
2019-06-20T07:46:26.856Z,98003.38
2019-06-20T07:48:55.623Z,98011.00
2019-06-20T07:51:24.335Z,98005.11
2019-06-20T07:53:53.053Z,98000.50
2019-06-20T07:56:21.865Z,97998.20
2019-06-20T07:58:50.575Z,97994.39
2019-06-20T08:01:19.383Z,97991.70
2019-06-20T08:03:48.128Z,97994.13
2019-06-20T08:06:16.922Z,98001.77
2019-06-20T08:08:45.675Z,97994.66
2019-06-20T08:11:14.385Z,98000.31
2019-06-20T08:13:43.101Z,97996.50
2019-06-20T08:16:11.824Z,97995.63
2019-06-20T08:18:40.552Z,98000.97
2019-06-20T08:21:09.344Z,97998.09
2019-06-20T08:23:38.050Z,97994.39
2019-06-20T08:26:06.999Z,98001.38
2019-06-20T08:28:35.661Z,97996.59
2019-06-20T08:31:04.848Z,97998.41
2019-06-20T08:33:33.737Z,98006.41
2019-06-20T08:36:02.460Z,98001.55
2019-06-20T08:38:31.165Z,98008.17
2019-06-20T08:41:00.204Z,98002.58
2019-06-20T08:43:29.051Z,98010.02
2019-06-20T08:45:57.925Z,98008.45
2019-06-20T08:48:26.612Z,98003.00
2019-06-20T08:50:56.859Z,98011.70
2019-06-20T08:53:25.765Z,98004.77
2019-06-20T08:55:55.896Z,98002.81
2019-06-20T08:58:24.952Z,97996.73
2019-06-20T09:00:55.480Z,97999.61
2019-06-20T09:03:24.149Z,97994.41
2019-06-20T09:05:54.962Z,97989.83
2019-06-20T09:08:23.309Z,97989.92
2019-06-20T09:10:54.111Z,97982.73
2019-06-20T09:13:22.486Z,97982.38
2019-06-20T09:15:52.229Z,97986.56
2019-06-20T09:18:21.628Z,97972.63
2019-06-20T09:20:52.671Z,97973.30
2019-06-20T09:23:20.804Z,97973.46
2019-06-20T09:25:50.921Z,97968.83
2019-06-20T09:28:19.963Z,97968.33
2019-06-20T09:30:48.672Z,97961.44
2019-06-20T09:33:17.380Z,97960.75
2019-06-20T09:35:46.084Z,97962.19
2019-06-20T09:38:14.793Z,97955.86
2019-06-20T09:40:43.500Z,97952.83
2019-06-20T09:43:24.170Z,97950.48
2019-06-20T09:45:42.649Z,97945.28
2019-06-20T09:48:11.348Z,97948.93
2019-06-20T09:50:40.048Z,97948.23
2019-06-20T09:53:08.764Z,97936.34
2019-06-20T09:55:37.463Z,97936.93
2019-06-20T09:58:06.493Z,97933.13
2019-06-20T10:00:35.741Z,97937.47
2019-06-20T10:03:04.917Z,97931.72
2019-06-20T10:05:33.618Z,97934.72
2019-06-20T10:08:02.436Z,97938.45
2019-06-20T10:10:32.142Z,97942.03
2019-06-20T10:13:00.899Z,97944.19
2019-06-20T10:15:32.303Z,97943.75
2019-06-20T10:18:01.026Z,97952.35
2019-06-20T10:20:29.827Z,97946.50
2019-06-20T10:22:58.647Z,97951.85
2019-06-20T10:25:27.395Z,97948.83
2019-06-20T10:27:57.691Z,97957.41
2019-06-20T10:30:28.095Z,97944.90
2019-06-20T10:32:57.698Z,97949.84
2019-06-20T10:35:27.007Z,97944.35
2019-06-20T10:37:57.147Z,97953.00
2019-06-20T10:40:26.551Z,97953.29
2019-06-20T10:42:56.656Z,97951.66
2019-06-20T10:45:26.683Z,97952.59
2019-06-20T10:47:55.961Z,97950.67
2019-06-20T10:50:25.605Z,97948.26
2019-06-20T10:52:54.812Z,97942.41
2019-06-20T10:55:24.019Z,97936.10
2019-06-20T10:57:52.731Z,97932.09
2019-06-20T11:00:30.975Z,97931.34
2019-06-20T11:02:54.674Z,97928.07
2019-06-20T11:05:24.363Z,97923.88
2019-06-20T11:07:53.080Z,97919.98
2019-06-20T11:10:23.446Z,97916.16
2019-06-20T11:12:55.631Z,97905.54
2019-06-20T11:15:24.150Z,97910.86
2019-06-20T11:17:56.143Z,97912.22
2019-06-20T11:20:23.604Z,97909.64
2019-06-20T11:22:52.350Z,97907.79
2019-06-20T11:25:21.161Z,97902.95
2019-06-20T11:27:49.865Z,97907.39
2019-06-20T11:30:44.929Z,97890.76
2019-06-20T11:33:00.953Z,97885.64
2019-06-20T11:35:29.654Z,97876.28
2019-06-20T11:37:58.379Z,97883.02
2019-06-20T11:40:27.158Z,97884.84
2019-06-20T11:42:55.929Z,97881.05
2019-06-20T11:45:25.534Z,97878.98
2019-06-20T11:47:54.251Z,97879.96
2019-06-20T11:50:24.529Z,97871.75
2019-06-20T11:52:53.251Z,97863.19
2019-06-20T11:55:22.163Z,97865.32
2019-06-20T11:57:50.884Z,97864.73
2019-06-20T12:00:20.605Z,97860.96
2019-06-20T12:02:50.298Z,97863.34
2019-06-20T12:05:19.129Z,97858.59
2019-06-20T12:07:49.577Z,97849.59
2019-06-20T12:10:18.917Z,97855.20
2019-06-20T12:12:48.997Z,97851.64
2019-06-20T12:15:19.914Z,97849.59
2019-06-20T12:17:49.351Z,97849.54
2019-06-20T12:20:18.854Z,97842.84
2019-06-20T12:22:50.553Z,97842.73
2019-06-20T12:25:18.056Z,97839.52
2019-06-20T12:27:47.618Z,97834.95
2019-06-20T12:30:19.157Z,97841.02
2019-06-20T12:32:49.173Z,97833.88
2019-06-20T12:35:18.270Z,97833.08
2019-06-20T12:37:47.792Z,97825.05
2019-06-20T12:40:17.417Z,97818.09
2019-06-20T12:42:46.784Z,97821.19
2019-06-20T12:45:16.929Z,97821.89
2019-06-20T12:47:46.073Z,97817.50
2019-06-20T12:50:15.687Z,97816.58
2019-06-20T12:52:45.746Z,97812.84
2019-06-20T12:55:15.442Z,97815.31
2019-06-20T12:57:44.352Z,97820.92
2019-06-20T13:00:14.942Z,97815.52
2019-06-20T13:02:44.222Z,97813.09
2019-06-20T13:05:15.981Z,97796.14
2019-06-20T13:07:46.229Z,97797.47
2019-06-20T13:10:15.581Z,97801.31
2019-06-20T13:12:44.384Z,97804.30
2019-06-20T13:15:13.641Z,97801.06
2019-06-20T13:17:43.660Z,97805.36
2019-06-20T13:20:13.674Z,97806.70
2019-06-20T13:22:42.902Z,97808.11
2019-06-20T13:25:13.480Z,97799.55
2019-06-20T13:27:43.403Z,97798.42
2019-06-20T13:30:13.307Z,97800.92
2019-06-20T13:32:43.426Z,97797.73
2019-06-20T13:35:14.653Z,97786.82
2019-06-20T13:37:43.930Z,97798.17
2019-06-20T13:40:14.562Z,97810.08
2019-06-20T13:42:44.165Z,97802.12
2019-06-20T13:45:27.385Z,97805.06
2019-06-20T13:47:56.494Z,97799.53
2019-06-20T13:50:26.799Z,97798.16
2019-06-20T13:52:55.527Z,97795.58
2019-06-20T13:55:24.235Z,97799.98
2019-06-20T13:57:52.998Z,97799.63
2019-06-20T14:00:24.041Z,97805.02
2019-06-20T14:02:52.747Z,97801.51
2019-06-20T14:05:21.680Z,97801.96
2019-06-20T14:07:53.819Z,97802.45
2019-06-20T14:10:21.032Z,97805.27
2019-06-20T14:12:49.729Z,97814.55
2019-06-20T14:15:18.843Z,97811.41
2019-06-20T14:17:49.743Z,97816.92
2019-06-20T14:20:19.607Z,97821.93
2019-06-20T14:22:49.478Z,97817.74
2019-06-20T14:25:20.657Z,97814.30
2019-06-20T14:27:49.974Z,97819.38
2019-06-20T14:30:20.817Z,97813.76
2019-06-20T14:32:49.609Z,97815.91
2019-06-20T14:35:18.974Z,97815.98
2019-06-20T14:37:49.171Z,97817.33
2019-06-20T14:40:19.851Z,97811.53
2019-06-20T14:42:50.116Z,97812.87
2019-06-20T14:45:19.834Z,97817.25
2019-06-20T14:47:48.638Z,97821.80
2019-06-20T14:50:17.852Z,97830.66
2019-06-20T14:52:48.171Z,97831.88
2019-06-20T14:55:17.050Z,97829.28
2019-06-20T14:57:46.968Z,97840.50
2019-06-20T15:00:17.160Z,97868.35
2019-06-20T15:02:47.989Z,97913.95
2019-06-20T15:05:17.869Z,97926.77
2019-06-20T15:07:48.919Z,97910.98
2019-06-20T15:10:17.675Z,97924.38
2019-06-20T15:12:48.344Z,97931.56
2019-06-20T15:15:17.159Z,97944.59
2019-06-20T15:17:47.450Z,97936.47
2019-06-20T15:20:17.117Z,97941.42
2019-06-20T15:22:47.417Z,97938.02
2019-06-20T15:25:16.260Z,97943.67
2019-06-20T15:27:47.280Z,97946.28
2019-06-20T15:30:16.094Z,97954.41
2019-06-20T15:32:55.555Z,97941.06
2019-06-20T15:35:15.375Z,97941.06
2019-06-20T15:37:44.117Z,97950.56
2019-06-20T15:40:13.490Z,97934.27
2019-06-20T15:42:42.235Z,97936.84
2019-06-20T15:45:11.338Z,97941.61
2019-06-20T15:47:40.048Z,97947.19
2019-06-20T15:50:09.048Z,97939.12
2019-06-20T15:52:37.770Z,97933.43
2019-06-20T15:55:07.845Z,97921.17
2019-06-20T15:57:36.573Z,97920.30
2019-06-20T16:00:14.474Z,97917.90
2019-06-20T16:02:43.185Z,97919.00
2019-06-20T16:05:13.111Z,97917.60
2019-06-20T16:07:41.852Z,97924.12
2019-06-20T16:10:10.972Z,97932.02
2019-06-20T16:12:39.743Z,97934.67
2019-06-20T16:15:10.721Z,97932.08
2019-06-20T16:17:39.426Z,97926.55
2019-06-20T16:20:08.754Z,97930.09
2019-06-20T16:22:37.457Z,97938.88
2019-06-20T16:25:09.523Z,97940.98
2019-06-20T16:27:38.250Z,97930.16
2019-06-20T16:30:07.463Z,97941.17
2019-06-20T16:32:36.777Z,97935.92
2019-06-20T16:35:08.822Z,97937.73
2019-06-20T16:37:37.563Z,97930.23
2019-06-20T16:40:08.640Z,97943.38
2019-06-20T16:42:37.341Z,97951.65
2019-06-20T16:45:07.651Z,97943.00
2019-06-20T16:47:36.356Z,97936.72
2019-06-20T16:50:08.720Z,97938.86
2019-06-20T16:52:37.426Z,97936.48
2019-06-20T16:55:06.926Z,97936.03
2019-06-20T16:57:35.628Z,97935.75
2019-06-20T17:00:07.528Z,97938.66
2019-06-20T17:02:36.298Z,97935.89
2019-06-20T17:05:06.710Z,97931.67
2019-06-20T17:07:35.804Z,97934.44
2019-06-20T17:10:06.418Z,97927.63
2019-06-20T17:12:35.127Z,97927.63
2019-06-20T17:15:05.069Z,97927.35
2019-06-20T17:17:33.772Z,97929.91
2019-06-20T17:20:02.516Z,97926.73
2019-06-20T17:22:31.227Z,97927.98
2019-06-20T17:24:59.932Z,97920.63
2019-06-20T17:27:28.709Z,97920.63
2019-06-20T17:29:57.468Z,97921.34
2019-06-20T17:32:26.190Z,97928.83
2019-06-20T17:34:54.934Z,97928.58
2019-06-20T17:37:23.655Z,97938.80
2019-06-20T17:39:52.428Z,97929.69
2019-06-20T17:42:21.146Z,97937.44
2019-06-20T17:44:49.851Z,97939.34
2019-06-20T17:47:18.565Z,97935.09
2019-06-20T17:49:47.293Z,97933.73
2019-06-20T17:52:16.043Z,97927.35
2019-06-20T17:54:44.756Z,97926.48
2019-06-20T17:57:13.460Z,97926.97
2019-06-20T17:59:42.186Z,97927.80
2019-06-20T18:02:10.894Z,97922.83
2019-06-20T18:04:39.638Z,97926.06
2019-06-20T18:07:10.043Z,97927.01
2019-06-20T18:09:40.365Z,97919.30
2019-06-20T18:12:10.642Z,97921.92
2019-06-20T18:14:39.398Z,97923.47
2019-06-20T18:17:08.143Z,97923.16
2019-06-20T18:19:36.853Z,97924.70
2019-06-20T18:22:05.564Z,97925.22
2019-06-20T18:24:34.281Z,97926.15
2019-06-20T18:27:02.995Z,97934.05
2019-06-20T18:29:31.749Z,97945.20
2019-06-20T18:32:00.514Z,97949.60
2019-06-20T18:34:30.525Z,97960.98
2019-06-20T18:36:59.581Z,97964.83
2019-06-20T18:39:28.275Z,97967.61
2019-06-20T18:41:57.033Z,97972.66
2019-06-20T18:44:26.141Z,97974.84
2019-06-20T18:46:54.849Z,97981.05
2019-06-20T18:49:23.570Z,97974.26
2019-06-20T18:51:52.280Z,97977.30
2019-06-20T18:54:21.137Z,97974.19
2019-06-20T18:56:49.872Z,97981.60
2019-06-20T18:59:18.573Z,97980.13
2019-06-20T19:01:47.290Z,97986.31
2019-06-20T19:04:15.991Z,97998.63
2019-06-20T19:06:44.759Z,97996.92
2019-06-20T19:09:13.457Z,98001.02
2019-06-20T19:11:42.199Z,97994.36
2019-06-20T19:14:12.723Z,97996.06
2019-06-20T19:16:41.333Z,98001.75
2019-06-20T19:19:10.088Z,98000.71
2019-06-20T19:21:38.786Z,98004.63
2019-06-20T19:24:07.499Z,98004.83
2019-06-20T19:26:36.216Z,98014.34
2019-06-20T19:29:05.041Z,98016.88
2019-06-20T19:31:33.748Z,98017.45
2019-06-20T19:34:02.443Z,98022.30
2019-06-20T19:36:31.189Z,98017.52
2019-06-20T19:38:59.902Z,98021.84
2019-06-20T19:41:28.602Z,98024.08
2019-06-20T19:43:57.330Z,98024.27
2019-06-20T19:46:26.059Z,98023.27
2019-06-20T19:48:54.804Z,98018.62
2019-06-20T19:51:23.520Z,98001.59
2019-06-20T19:53:52.228Z,98016.77
2019-06-20T19:56:21.042Z,98020.30
2019-06-20T19:58:49.846Z,98020.69
2019-06-20T20:01:18.889Z,98020.20
2019-06-20T20:03:47.667Z,98017.48
2019-06-20T20:06:16.395Z,98015.19
2019-06-20T20:08:45.184Z,98021.55
2019-06-20T20:11:13.889Z,98029.06
2019-06-20T20:13:42.641Z,98037.58
2019-06-20T20:16:11.342Z,98037.25
2019-06-20T20:18:40.049Z,98049.83
2019-06-20T20:21:08.766Z,98054.41
2019-06-20T20:23:37.483Z,98057.83
2019-06-20T20:26:08.687Z,98061.74
2019-06-20T20:28:36.689Z,98066.77
2019-06-20T20:31:05.401Z,98076.55
2019-06-20T20:33:34.108Z,98077.44
2019-06-20T20:36:02.815Z,98076.23
2019-06-20T20:38:31.557Z,98081.84
2019-06-20T20:41:00.268Z,98074.70
2019-06-20T20:43:28.987Z,98079.25
2019-06-20T20:45:57.703Z,98083.16
2019-06-20T20:48:26.408Z,98088.83
2019-06-20T20:50:55.159Z,98087.61
2019-06-20T20:53:23.872Z,98088.78
2019-06-20T20:55:52.580Z,98090.53
2019-06-20T20:58:21.297Z,98089.06
2019-06-20T21:00:58.551Z,98099.91
2019-06-20T21:03:27.269Z,98101.84
2019-06-20T21:05:55.981Z,98108.59
2019-06-20T21:08:24.684Z,98114.47
2019-06-20T21:10:53.398Z,98110.98
2019-06-20T21:13:22.113Z,98108.63
2019-06-20T21:15:50.821Z,98103.19
2019-06-20T21:18:19.603Z,98101.36
2019-06-20T21:20:48.310Z,98106.37
2019-06-20T21:23:17.021Z,98108.77
2019-06-20T21:25:45.799Z,98105.66
2019-06-20T21:28:14.500Z,98101.76
2019-06-20T21:30:43.224Z,98099.92
2019-06-20T21:33:11.960Z,98109.98
2019-06-20T21:35:40.973Z,98109.89
2019-06-20T21:38:09.677Z,98111.16
2019-06-20T21:40:38.388Z,98105.11
2019-06-20T21:43:07.100Z,98099.00
2019-06-20T21:45:35.863Z,98101.58
2019-06-20T21:48:04.707Z,98110.45
2019-06-20T21:50:33.376Z,98110.64
2019-06-20T21:53:02.610Z,98107.95
2019-06-20T21:55:31.319Z,98100.30
2019-06-20T21:58:00.070Z,98099.27
2019-06-20T22:00:33.321Z,98099.06
2019-06-20T22:03:02.006Z,98094.50
2019-06-20T22:05:30.729Z,98093.34
2019-06-20T22:07:59.452Z,98088.10
2019-06-20T22:10:28.207Z,98085.41
2019-06-20T22:12:56.953Z,98087.67
2019-06-20T22:15:25.650Z,98084.59
2019-06-20T22:17:54.366Z,98087.55
2019-06-20T22:20:24.687Z,98087.40
2019-06-20T22:22:53.547Z,98084.11
2019-06-20T22:25:22.663Z,98075.78
2019-06-20T22:27:51.390Z,98080.14
2019-06-20T22:30:28.771Z,98075.34
2019-06-20T22:32:57.475Z,98072.55
2019-06-20T22:35:26.225Z,98078.34
2019-06-20T22:37:54.933Z,98073.53
2019-06-20T22:40:23.652Z,98068.74
2019-06-20T22:42:52.358Z,98066.98
2019-06-20T22:45:21.192Z,98071.74
2019-06-20T22:47:49.918Z,98068.88
2019-06-20T22:50:18.739Z,98068.78
2019-06-20T22:52:47.442Z,98067.51
2019-06-20T22:55:16.163Z,98062.28
2019-06-20T22:57:44.876Z,98064.92
2019-06-20T23:00:14.128Z,98061.33
2019-06-20T23:02:42.856Z,98059.19
2019-06-20T23:05:11.666Z,98061.67
2019-06-20T23:07:40.646Z,98062.04
2019-06-20T23:10:11.347Z,98070.20
2019-06-20T23:12:40.319Z,98080.13
2019-06-20T23:15:09.706Z,98082.95
2019-06-20T23:17:38.412Z,98078.38
2019-06-20T23:20:08.523Z,98079.80
2019-06-20T23:22:37.234Z,98081.62
2019-06-20T23:25:08.137Z,98081.34
2019-06-20T23:27:36.795Z,98076.56
2019-06-20T23:30:07.577Z,98072.30
2019-06-20T23:32:36.273Z,98076.48
2019-06-20T23:35:09.304Z,98081.47
2019-06-20T23:37:38.049Z,98082.98
2019-06-20T23:40:07.858Z,98077.50
2019-06-20T23:42:36.597Z,98076.13
2019-06-20T23:45:09.780Z,98078.59
2019-06-20T23:47:38.483Z,98077.05
2019-06-20T23:50:10.631Z,98072.69
2019-06-20T23:52:46.633Z,98069.00
2019-06-20T23:55:15.380Z,98068.03
2019-06-20T23:57:44.090Z,98073.26
